Αρχική σελίδα
METAR-TAF:

METAR-TAF

Αεροδρόμια :

Γενεύη, Ελβετία

γεωγραφικό πλάτος: 46-15N, γεωγραφικό μήκος: 006-08E, υψόμετρο: 420 μ

Παρών καιρός

Η αναφορά έγινε 20 λεπτά πριν, στις 01:50 UTC
Άνεμος 10 kt από Α/BA
Θερμοκρασία 11°C
Υγρασία 71%
Πίεση 1023 hPa
Ορατότητα 10 χλμ και άνω
Δεν υπάρχουν νέφη με βάση κάτω από τα 1500 μ. και δεν υπάρχουν νέφη σωρειτομελανίτες.

METAR: LSGG 220150Z AUTO 06010KT CAVOK 11/06 Q1023 NOSIG

Χρόνος: 04:10 (02:10 UTC)

Πρόγνωση Καιρού

Η αναφορά έγινε 2 ώρες και 45 λεπτά πριν, στις 23:25 UTC
Η πρόγνωση ισχύει από τις 22 στις 00 UTC έως τις 23 στις 06 UTC
Άνεμος 10 kt από BA με ριπές μέχρι 22 kt
Ορατότητα 10 χλμ και άνω
Δεν υπάρχουν νέφη με βάση κάτω από τα 1500 μ. και δεν υπάρχουν νέφη σωρειτομελανίτες.

TAF: LSGG 212325Z 2200/2306 04010G22KT CAVOK TX15/2215Z TN07/2206Z TN06/2306Z

Μετεωρολογικές αναφορές και προγνώσεις για περισσότερα από 4000 αεροδρόμια (δελτία METAR και TAF).

Οι διαθέσιμοι σταθμοί απεικονίζονται στο χάρτη με κίτρινες και κόκκινες κουκκίδες.

Μετακινήστε το ποντίκι πάνω από τις κουκκίδες για να δείτε το όνομα του σταθμού.

Στη συνέχεια, κάντε κλικ για να δείτε τις μετεωρολογικές αναφορές και τις προγνώσεις καιρού.

Για να αλλάξετε το χάρτη: κάντε κλικ στα πράσινα κουμπιά με τον μαύρο σταυρό για να ζουμάρετε, στο πράσινο κουμπί με την παύλα για να αφαιρέσετε το ζουμ ή στα πράσινα βέλη για να αντιπαραβάλλετε χάρτες.


METAR-TAF: